Weather at C.S.S. Heliport

Public forecast

Using degrees Fahrenheit for public forecast. Weather courtesy of forecast.io.

Closest aviation weather report (METAR) to C.S.S. Heliport

Closest report is Nashua Airport / Boire Field, 3.1 nm (5.7 km) NNW. Retrieved 2020/12/04 21:56 UTC (58 minutes ago):

KASH 042156Z 00000KT 10SM BKN090 07/01 A2991 RMK AO2 SLP135 T00720011

Closest aviation forecast (TAF) to C.S.S. Heliport

Closest forecast is Manchester-Boston Regional Airport, 11.9 nm (22.1 km) N. Retrieved 2020/12/04 18:22 UTC (5 hours ago):

TAF KMHT 041720Z 0418/0518 20009KT P6SM BKN090 BKN250 FM050400 19004KT 5SM BR OVC025 FM051200 01005KT 4SM -RA BR OVC015 FM051300 36008KT 1/2SM -RA FG OVC007